createdAt,value
2023-05-16T00:00:20.033Z,15.29
2023-05-16T00:01:19.289Z,15.25
2023-05-16T00:01:53.342Z,15.17
2023-05-16T00:02:33.616Z,15.13
2023-05-16T00:03:14.565Z,15.16
2023-05-16T00:03:54.369Z,15.25
2023-05-16T00:04:35.602Z,15.26
2023-05-16T00:05:17.264Z,15.15
2023-05-16T00:06:11.226Z,15.14
2023-05-16T00:07:05.239Z,14.99
2023-05-16T00:07:54.235Z,15.14
2023-05-16T00:08:28.401Z,15.14
2023-05-16T00:09:15.246Z,15.23
2023-05-16T00:09:49.327Z,15.10
2023-05-16T00:10:36.220Z,15.12
2023-05-16T00:11:10.391Z,15.10
2023-05-16T00:11:58.246Z,15.08
2023-05-16T00:12:33.074Z,15.08
2023-05-16T00:13:13.259Z,15.10
2023-05-16T00:13:53.385Z,15.08
2023-05-16T00:14:34.234Z,14.99
2023-05-16T00:15:16.647Z,15.04
2023-05-16T00:15:56.256Z,15.13
2023-05-16T00:16:37.062Z,15.03
2023-05-16T00:17:18.236Z,15.09
2023-05-16T00:18:01.294Z,15.04
2023-05-16T00:18:45.330Z,15.17
2023-05-16T00:19:26.669Z,15.11
2023-05-16T00:20:06.209Z,15.17
2023-05-16T00:20:46.338Z,15.13
2023-05-16T00:21:26.213Z,14.94
2023-05-16T00:22:06.433Z,14.98
2023-05-16T00:22:47.240Z,14.99
2023-05-16T00:23:27.314Z,15.08
2023-05-16T00:24:10.249Z,15.12
2023-05-16T00:24:50.351Z,15.06
2023-05-16T00:25:31.235Z,15.01
2023-05-16T00:26:11.360Z,15.08
2023-05-16T00:26:51.207Z,15.03
2023-05-16T00:27:31.349Z,15.13
2023-05-16T00:28:12.230Z,15.02
2023-05-16T00:28:52.330Z,15.10
2023-05-16T00:29:33.262Z,15.07
2023-05-16T00:30:14.367Z,15.08
2023-05-16T00:30:55.258Z,15.19
2023-05-16T00:31:35.659Z,15.04
2023-05-16T00:32:16.507Z,15.07
2023-05-16T00:32:56.527Z,15.12
2023-05-16T00:33:37.207Z,15.05
2023-05-16T00:34:17.430Z,15.09
2023-05-16T00:34:57.267Z,14.98
2023-05-16T00:35:37.363Z,15.00
2023-05-16T00:36:22.971Z,15.14
2023-05-16T00:37:07.356Z,15.08
2023-05-16T00:37:48.219Z,14.90
2023-05-16T00:38:28.508Z,15.09
2023-05-16T00:39:08.221Z,15.07
2023-05-16T00:39:49.923Z,15.06
2023-05-16T00:40:31.227Z,15.03
2023-05-16T00:41:11.296Z,15.05
2023-05-16T00:41:52.266Z,15.01
2023-05-16T00:42:32.443Z,14.98
2023-05-16T00:43:12.238Z,14.96
2023-05-16T00:43:52.368Z,14.78
2023-05-16T00:44:33.192Z,14.79
2023-05-16T00:45:14.335Z,14.83
2023-05-16T00:45:54.344Z,14.85
2023-05-16T00:46:34.377Z,14.79
2023-05-16T00:47:14.204Z,14.95
2023-05-16T00:47:55.463Z,14.84
2023-05-16T00:48:36.203Z,14.97
2023-05-16T00:49:19.384Z,14.88
2023-05-16T00:50:00.247Z,14.98
2023-05-16T00:50:41.318Z,14.93
2023-05-16T00:51:21.220Z,14.96
2023-05-16T00:52:01.326Z,14.93
2023-05-16T00:52:42.191Z,14.82
2023-05-16T00:53:26.308Z,14.93
2023-05-16T00:54:07.224Z,14.80
2023-05-16T00:54:47.317Z,14.80
2023-05-16T00:55:28.193Z,14.90
2023-05-16T00:56:09.334Z,14.94
2023-05-16T00:56:50.225Z,15.01
2023-05-16T00:57:30.406Z,14.96
2023-05-16T00:58:12.186Z,14.97
2023-05-16T00:58:52.271Z,14.82
2023-05-16T00:59:33.214Z,14.85
2023-05-16T01:00:19.836Z,14.77
2023-05-16T01:01:01.235Z,14.93
2023-05-16T01:01:42.437Z,14.98
2023-05-16T01:02:23.250Z,14.93
2023-05-16T01:03:04.759Z,14.88
2023-05-16T01:03:46.308Z,14.73
2023-05-16T01:04:26.497Z,15.04
2023-05-16T01:05:08.253Z,15.01
2023-05-16T01:05:49.814Z,14.99
2023-05-16T01:06:30.178Z,14.96
2023-05-16T01:07:10.434Z,14.86
2023-05-16T01:07:50.299Z,14.81
2023-05-16T01:08:30.313Z,14.90
2023-05-16T01:09:11.220Z,14.85
2023-05-16T01:09:51.328Z,15.03
2023-05-16T01:10:33.175Z,14.88
2023-05-16T01:11:29.344Z,14.97
2023-05-16T01:12:23.181Z,15.00
2023-05-16T01:13:33.236Z,14.94
2023-05-16T01:15:18.483Z,15.07
2023-05-16T01:16:26.192Z,14.95
2023-05-16T01:17:51.223Z,14.99
2023-05-16T01:18:58.871Z,14.98
2023-05-16T01:20:23.191Z,14.85
2023-05-16T01:21:30.183Z,14.68
2023-05-16T01:22:54.194Z,14.80
2023-05-16T01:24:38.185Z,14.79
2023-05-16T01:25:59.166Z,14.74
2023-05-16T01:26:54.200Z,14.57
2023-05-16T01:27:49.209Z,14.51
2023-05-16T01:28:44.168Z,14.51
2023-05-16T01:29:38.212Z,14.39
2023-05-16T01:30:33.179Z,14.49
2023-05-16T01:31:27.203Z,14.63
2023-05-16T01:32:21.200Z,14.58
2023-05-16T01:33:15.231Z,14.46
2023-05-16T01:34:09.156Z,14.46
2023-05-16T01:34:58.174Z,14.38
2023-05-16T01:35:32.252Z,14.35
2023-05-16T01:37:16.144Z,14.34
2023-05-16T01:38:27.223Z,14.46
2023-05-16T01:39:37.185Z,14.37
2023-05-16T01:40:24.182Z,14.41
2023-05-16T01:41:26.143Z,14.31
2023-05-16T01:42:28.164Z,14.28
2023-05-16T01:43:28.127Z,14.30
2023-05-16T01:44:36.137Z,14.33
2023-05-16T01:45:46.141Z,14.41
2023-05-16T01:46:48.187Z,14.54
2023-05-16T01:47:43.203Z,14.40
2023-05-16T01:48:44.152Z,14.36
2023-05-16T01:49:51.134Z,14.23
2023-05-16T01:50:50.161Z,14.35
2023-05-16T01:51:46.136Z,14.43
2023-05-16T01:52:54.159Z,14.43
2023-05-16T01:53:52.156Z,14.37
2023-05-16T01:54:47.144Z,14.42
2023-05-16T01:55:53.165Z,14.52
2023-05-16T01:56:47.118Z,14.54
2023-05-16T01:57:42.137Z,14.56
2023-05-16T01:58:40.864Z,14.43
2023-05-16T01:59:37.148Z,14.48
2023-05-16T02:00:28.297Z,14.55
2023-05-16T02:01:11.223Z,14.68
2023-05-16T02:01:51.482Z,14.51
2023-05-16T02:02:54.155Z,14.59
2023-05-16T02:03:49.133Z,14.45
2023-05-16T02:04:43.116Z,14.61
2023-05-16T02:05:37.106Z,14.41
2023-05-16T02:06:24.199Z,14.47
2023-05-16T02:07:04.297Z,14.44
2023-05-16T02:07:44.129Z,14.39
2023-05-16T02:08:26.378Z,14.40
2023-05-16T02:09:06.132Z,14.43
2023-05-16T02:09:46.213Z,14.49
2023-05-16T02:10:27.153Z,14.55
2023-05-16T02:11:07.247Z,14.49
2023-05-16T02:11:47.210Z,14.46
2023-05-16T02:12:28.222Z,14.49
2023-05-16T02:13:08.155Z,14.44
2023-05-16T02:13:48.227Z,14.35
2023-05-16T02:14:28.122Z,14.39
2023-05-16T02:15:08.227Z,14.44
2023-05-16T02:15:48.136Z,14.50
2023-05-16T02:16:29.254Z,14.50
2023-05-16T02:17:09.209Z,14.47
2023-05-16T02:17:49.686Z,14.70
2023-05-16T02:18:30.159Z,14.65
2023-05-16T02:19:10.801Z,14.50
2023-05-16T02:19:51.107Z,14.34
2023-05-16T02:20:32.195Z,14.46
2023-05-16T02:21:12.106Z,14.51
2023-05-16T02:21:52.217Z,14.43
2023-05-16T02:22:32.144Z,14.45
2023-05-16T02:23:12.842Z,14.54
2023-05-16T02:23:53.104Z,14.65
2023-05-16T02:24:34.224Z,14.69
2023-05-16T02:25:16.123Z,14.52
2023-05-16T02:25:56.230Z,14.37
2023-05-16T02:26:36.148Z,14.51
2023-05-16T02:27:16.224Z,14.41
2023-05-16T02:27:56.123Z,14.51
2023-05-16T02:28:37.213Z,14.58
2023-05-16T02:29:18.093Z,14.65
2023-05-16T02:29:58.210Z,14.74
2023-05-16T02:30:38.155Z,14.59
2023-05-16T02:31:18.236Z,14.57
2023-05-16T02:31:58.115Z,14.61
2023-05-16T02:32:39.431Z,14.59
2023-05-16T02:33:20.161Z,14.65
2023-05-16T02:34:00.194Z,14.44
2023-05-16T02:34:40.122Z,14.48
2023-05-16T02:35:20.386Z,14.59
2023-05-16T02:36:01.134Z,14.46
2023-05-16T02:36:42.476Z,14.54
2023-05-16T02:37:23.085Z,14.50
2023-05-16T02:38:04.192Z,14.54
2023-05-16T02:38:44.113Z,14.41
2023-05-16T02:39:24.197Z,14.51
2023-05-16T02:40:15.109Z,14.50
2023-05-16T02:40:49.281Z,14.60
2023-05-16T02:41:37.113Z,14.59
2023-05-16T02:42:13.246Z,14.48
2023-05-16T02:43:00.117Z,14.40
2023-05-16T02:43:34.173Z,14.36
2023-05-16T02:44:17.113Z,14.61
2023-05-16T02:44:57.182Z,14.41
2023-05-16T02:45:38.103Z,14.50
2023-05-16T02:46:33.272Z,14.54
2023-05-16T02:47:14.087Z,14.65
2023-05-16T02:47:54.255Z,14.63
2023-05-16T02:48:35.114Z,14.67
2023-05-16T02:49:15.217Z,14.68
2023-05-16T02:49:57.132Z,14.65
2023-05-16T02:50:37.613Z,14.58
2023-05-16T02:51:18.103Z,14.57
2023-05-16T02:51:58.189Z,14.57
2023-05-16T02:52:39.108Z,14.47
2023-05-16T02:53:19.223Z,14.37
2023-05-16T02:54:00.149Z,14.52
2023-05-16T02:54:40.201Z,14.53
2023-05-16T02:55:22.252Z,14.61
2023-05-16T02:56:06.790Z,14.45
2023-05-16T02:56:48.136Z,14.60
2023-05-16T02:57:29.297Z,14.50
2023-05-16T02:58:09.146Z,14.47
2023-05-16T02:58:50.544Z,14.58
2023-05-16T02:59:30.079Z,14.57
2023-05-16T03:00:11.550Z,14.32
2023-05-16T03:00:52.109Z,14.52
2023-05-16T03:01:32.265Z,14.51
2023-05-16T03:02:13.220Z,14.39
2023-05-16T03:02:53.211Z,14.41
2023-05-16T03:03:34.243Z,14.42
2023-05-16T03:04:14.511Z,14.44
2023-05-16T03:04:55.082Z,14.54
2023-05-16T03:05:35.461Z,14.54
2023-05-16T03:06:19.109Z,14.51
2023-05-16T03:06:59.253Z,14.30
2023-05-16T03:07:40.097Z,14.23
2023-05-16T03:08:20.209Z,14.27
2023-05-16T03:09:01.084Z,14.46
2023-05-16T03:09:41.188Z,14.54
2023-05-16T03:10:21.095Z,14.55
2023-05-16T03:11:01.203Z,14.46
2023-05-16T03:11:41.105Z,14.37
2023-05-16T03:12:21.187Z,14.48
2023-05-16T03:13:02.079Z,14.49
2023-05-16T03:13:42.520Z,14.61
2023-05-16T03:14:22.084Z,14.62
2023-05-16T03:15:02.235Z,14.71
2023-05-16T03:15:42.050Z,14.61
2023-05-16T03:16:22.224Z,14.58
2023-05-16T03:17:03.142Z,14.61
2023-05-16T03:17:43.314Z,14.52
2023-05-16T03:18:23.073Z,14.65
2023-05-16T03:19:03.398Z,14.57
2023-05-16T03:19:43.081Z,14.64
2023-05-16T03:20:26.152Z,14.30
2023-05-16T03:21:08.098Z,14.20
2023-05-16T03:21:48.155Z,14.41
2023-05-16T03:22:31.099Z,14.23
2023-05-16T03:23:12.196Z,14.40
2023-05-16T03:23:52.114Z,14.31
2023-05-16T03:24:32.205Z,14.29
2023-05-16T03:25:13.086Z,14.35
2023-05-16T03:25:53.177Z,14.27
2023-05-16T03:26:34.111Z,14.39
2023-05-16T03:27:15.402Z,14.38
2023-05-16T03:27:55.101Z,14.60
2023-05-16T03:28:35.610Z,14.60
2023-05-16T03:29:17.057Z,14.59
2023-05-16T03:29:57.159Z,14.29
2023-05-16T03:30:37.058Z,14.40
2023-05-16T03:31:17.229Z,14.43
2023-05-16T03:31:58.101Z,14.35
2023-05-16T03:32:39.246Z,14.41
2023-05-16T03:33:20.164Z,14.33
2023-05-16T03:34:00.297Z,14.21
2023-05-16T03:34:40.071Z,14.45
2023-05-16T03:35:20.283Z,14.41
2023-05-16T03:36:00.064Z,14.39
2023-05-16T03:36:40.131Z,14.40
2023-05-16T03:37:22.093Z,14.36
2023-05-16T03:38:02.285Z,14.37
2023-05-16T03:38:43.079Z,14.34
2023-05-16T03:39:24.166Z,14.24
2023-05-16T03:40:04.060Z,14.33
2023-05-16T03:40:44.162Z,14.30
2023-05-16T03:41:25.071Z,14.27
2023-05-16T03:42:05.747Z,14.14
2023-05-16T03:42:47.035Z,14.08
2023-05-16T03:43:27.309Z,14.07
2023-05-16T03:44:07.079Z,14.13
2023-05-16T03:44:47.127Z,14.02
2023-05-16T03:45:28.223Z,14.06
2023-05-16T03:46:09.211Z,13.90
2023-05-16T03:46:49.040Z,14.08
2023-05-16T03:47:31.286Z,14.24
2023-05-16T03:48:12.108Z,14.33
2023-05-16T03:48:52.098Z,14.13
2023-05-16T03:49:36.044Z,14.21
2023-05-16T03:50:16.443Z,14.21
2023-05-16T03:50:59.053Z,14.16
2023-05-16T03:51:39.159Z,14.22
2023-05-16T03:52:19.042Z,14.01
2023-05-16T03:52:59.432Z,14.27
2023-05-16T03:53:40.073Z,14.23
2023-05-16T03:54:20.238Z,14.25
2023-05-16T03:55:00.060Z,14.04
2023-05-16T03:55:40.187Z,14.19
2023-05-16T03:56:20.062Z,14.17
2023-05-16T03:57:00.185Z,14.29
2023-05-16T03:57:41.101Z,14.29
2023-05-16T03:58:24.179Z,14.22
2023-05-16T03:59:05.064Z,14.05
2023-05-16T03:59:45.103Z,14.24
2023-05-16T04:00:25.039Z,14.15
2023-05-16T04:01:05.115Z,14.14
2023-05-16T04:01:46.082Z,13.97
2023-05-16T04:02:49.092Z,14.02
2023-05-16T04:03:37.088Z,14.11
2023-05-16T04:04:10.826Z,13.96
2023-05-16T04:04:58.024Z,13.78
2023-05-16T04:05:38.086Z,13.81
2023-05-16T04:06:18.297Z,14.11
2023-05-16T04:06:58.030Z,14.19
2023-05-16T04:07:38.233Z,14.04
2023-05-16T04:08:18.016Z,14.01
2023-05-16T04:08:59.557Z,13.90
2023-05-16T04:09:40.042Z,13.92
2023-05-16T04:10:21.571Z,14.06
2023-05-16T04:11:02.037Z,14.14
2023-05-16T04:11:42.169Z,13.98
2023-05-16T04:12:22.049Z,14.11
2023-05-16T04:13:02.142Z,14.10
2023-05-16T04:13:43.050Z,14.14
2023-05-16T04:14:23.091Z,14.28
2023-05-16T04:15:03.068Z,14.18
2023-05-16T04:15:43.137Z,14.13
2023-05-16T04:16:23.072Z,14.20
2023-05-16T04:17:03.318Z,14.21
2023-05-16T04:17:45.039Z,14.17
2023-05-16T04:18:25.211Z,14.25
2023-05-16T04:19:06.230Z,14.21
2023-05-16T04:19:46.184Z,14.11
2023-05-16T04:20:26.048Z,13.92
2023-05-16T04:21:10.866Z,14.03
2023-05-16T04:21:52.159Z,14.00
2023-05-16T04:22:33.125Z,13.98
2023-05-16T04:23:13.074Z,14.08
2023-05-16T04:23:53.127Z,14.07
2023-05-16T04:24:35.053Z,14.16
2023-05-16T04:25:16.251Z,14.24
2023-05-16T04:25:57.104Z,14.07
2023-05-16T04:26:39.999Z,14.03
2023-05-16T04:27:20.056Z,13.99
2023-05-16T04:28:00.133Z,14.00
2023-05-16T04:28:41.090Z,14.01
2023-05-16T04:29:22.163Z,14.20
2023-05-16T04:30:03.062Z,14.19
2023-05-16T04:30:43.131Z,14.14
2023-05-16T04:31:24.049Z,14.25
2023-05-16T04:32:04.278Z,14.31
2023-05-16T04:32:45.062Z,14.24
2023-05-16T04:33:26.087Z,14.34
2023-05-16T04:34:06.002Z,14.15
2023-05-16T04:34:47.856Z,14.22
2023-05-16T04:35:29.120Z,14.32
2023-05-16T04:36:14.579Z,14.23
2023-05-16T04:36:55.008Z,14.14
2023-05-16T04:37:36.262Z,14.24
2023-05-16T04:38:16.121Z,14.30
2023-05-16T04:38:56.258Z,14.33
2023-05-16T04:39:36.053Z,14.17
2023-05-16T04:40:17.351Z,14.12
2023-05-16T04:41:00.972Z,14.30
2023-05-16T04:41:42.435Z,14.21
2023-05-16T04:42:24.008Z,14.23
2023-05-16T04:43:04.304Z,14.30
2023-05-16T04:43:45.126Z,14.22
2023-05-16T04:44:25.124Z,14.20
2023-05-16T04:45:05.075Z,14.19
2023-05-16T04:45:46.839Z,14.18
2023-05-16T04:46:27.094Z,14.29
2023-05-16T04:47:07.379Z,14.44
2023-05-16T04:47:48.093Z,14.31
2023-05-16T04:48:28.235Z,14.34
2023-05-16T04:49:08.145Z,14.40
2023-05-16T04:49:49.221Z,14.29
2023-05-16T04:50:28.994Z,14.35
2023-05-16T04:51:09.103Z,14.33
2023-05-16T04:51:50.031Z,14.32
2023-05-16T04:52:30.475Z,14.19
2023-05-16T04:53:11.004Z,14.26
2023-05-16T04:53:52.125Z,14.31
2023-05-16T04:54:33.065Z,14.19
2023-05-16T04:55:14.153Z,14.29
2023-05-16T04:55:54.037Z,14.25
2023-05-16T04:56:34.249Z,14.26
2023-05-16T04:57:14.001Z,14.30
2023-05-16T04:57:55.250Z,14.25
2023-05-16T04:58:35.042Z,14.16
2023-05-16T04:59:15.227Z,14.24
2023-05-16T04:59:55.024Z,14.35
2023-05-16T05:00:36.261Z,14.41
2023-05-16T05:01:16.103Z,14.21
2023-05-16T05:01:57.165Z,14.32
2023-05-16T05:02:37.022Z,14.45
2023-05-16T05:03:18.005Z,14.47
2023-05-16T05:03:58.066Z,14.37
2023-05-16T05:04:38.270Z,14.42
2023-05-16T05:05:19.165Z,14.49
2023-05-16T05:06:00.250Z,14.53
2023-05-16T05:06:39.990Z,14.47
2023-05-16T05:07:20.112Z,14.45
2023-05-16T05:08:01.026Z,14.45
2023-05-16T05:08:41.266Z,14.55
2023-05-16T05:09:21.104Z,14.54
2023-05-16T05:10:02.283Z,14.63
2023-05-16T05:10:43.052Z,14.70
2023-05-16T05:11:23.273Z,14.66
2023-05-16T05:12:03.426Z,14.72
2023-05-16T05:12:43.134Z,14.71
2023-05-16T05:13:22.987Z,14.75
2023-05-16T05:14:05.055Z,14.70
2023-05-16T05:14:45.082Z,14.84
2023-05-16T05:15:25.298Z,14.81
2023-05-16T05:16:06.074Z,14.70
2023-05-16T05:16:47.139Z,14.80
2023-05-16T05:17:28.200Z,14.82
2023-05-16T05:18:09.283Z,14.73
2023-05-16T05:18:52.039Z,14.78
2023-05-16T05:19:33.159Z,14.82
2023-05-16T05:20:15.435Z,14.78
2023-05-16T05:20:55.237Z,14.86
2023-05-16T05:21:37.045Z,14.71
2023-05-16T05:22:21.174Z,14.83
2023-05-16T05:23:00.988Z,14.84
2023-05-16T05:23:41.180Z,14.79
2023-05-16T05:24:20.973Z,14.78
2023-05-16T05:25:03.715Z,14.75
2023-05-16T05:25:51.046Z,14.77
2023-05-16T05:26:26.303Z,14.66
2023-05-16T05:27:07.102Z,14.78
2023-05-16T05:27:47.101Z,14.86
2023-05-16T05:28:28.055Z,14.92
2023-05-16T05:29:08.163Z,14.94
2023-05-16T05:29:49.028Z,14.73
2023-05-16T05:30:29.400Z,14.72
2023-05-16T05:31:14.609Z,14.72
2023-05-16T05:31:55.228Z,14.85
2023-05-16T05:32:39.233Z,14.80
2023-05-16T05:33:39.186Z,14.68
2023-05-16T05:34:33.044Z,14.69
2023-05-16T05:35:27.218Z,14.83
2023-05-16T05:36:26.091Z,14.83
2023-05-16T05:37:20.063Z,14.72
2023-05-16T05:38:04.353Z,14.78
2023-05-16T05:38:47.216Z,14.85
2023-05-16T05:39:28.046Z,14.84
2023-05-16T05:40:10.369Z,14.85
2023-05-16T05:40:53.002Z,14.89
2023-05-16T05:41:33.177Z,14.88
2023-05-16T05:43:23.062Z,14.95
2023-05-16T05:44:18.988Z,14.91
2023-05-16T05:45:12.963Z,14.83
2023-05-16T05:46:08.967Z,14.90
2023-05-16T05:47:04.099Z,14.74
2023-05-16T05:47:58.037Z,14.79
2023-05-16T05:48:45.194Z,14.92
2023-05-16T05:49:19.092Z,15.01
2023-05-16T05:50:06.949Z,14.97
2023-05-16T05:50:41.397Z,14.90
2023-05-16T05:51:27.929Z,14.77
2023-05-16T05:52:02.045Z,14.86
2023-05-16T05:52:49.987Z,15.04
2023-05-16T05:53:24.062Z,14.95
2023-05-16T05:54:04.970Z,15.09
2023-05-16T05:54:46.053Z,15.06
2023-05-16T05:55:48.995Z,15.17
2023-05-16T05:56:29.099Z,15.14
2023-05-16T05:57:08.951Z,15.24
2023-05-16T05:57:49.037Z,15.12
2023-05-16T05:58:29.959Z,15.03
2023-05-16T05:59:17.047Z,15.08
2023-05-16T06:00:12.020Z,15.05
2023-05-16T06:01:08.959Z,15.17
2023-05-16T06:03:06.991Z,15.32
2023-05-16T06:04:02.174Z,15.24
2023-05-16T06:04:42.999Z,15.28
2023-05-16T06:05:23.820Z,15.40
2023-05-16T06:06:06.131Z,15.32
2023-05-16T06:06:49.116Z,15.26
2023-05-16T06:07:29.958Z,15.43
2023-05-16T06:08:10.849Z,15.33
2023-05-16T06:08:50.951Z,15.29
2023-05-16T06:09:31.143Z,15.47
2023-05-16T06:10:13.003Z,15.44
2023-05-16T06:10:54.464Z,15.36
2023-05-16T06:11:35.965Z,15.47
2023-05-16T06:12:16.965Z,15.62
2023-05-16T06:12:57.951Z,15.49
2023-05-16T06:13:38.056Z,15.68
2023-05-16T06:14:18.934Z,15.57
2023-05-16T06:15:01.272Z,15.70
2023-05-16T06:15:42.108Z,15.62
2023-05-16T06:16:22.091Z,15.67
2023-05-16T06:17:02.046Z,15.55
2023-05-16T06:17:42.265Z,15.83
2023-05-16T06:18:22.039Z,15.87
2023-05-16T06:19:02.140Z,15.84
2023-05-16T06:19:42.952Z,15.92
2023-05-16T06:20:23.039Z,15.94
2023-05-16T06:21:03.013Z,15.90
2023-05-16T06:21:43.396Z,15.93
2023-05-16T06:22:22.920Z,15.95
2023-05-16T06:23:19.308Z,15.82
2023-05-16T06:24:15.960Z,16.04
2023-05-16T06:25:09.920Z,16.03
2023-05-16T06:26:04.968Z,15.83
2023-05-16T06:26:58.926Z,15.81
2023-05-16T06:27:52.906Z,15.95
2023-05-16T06:28:46.944Z,15.81
2023-05-16T06:29:40.967Z,15.92
2023-05-16T06:30:35.049Z,15.93
2023-05-16T06:31:22.148Z,15.95
2023-05-16T06:31:56.115Z,15.75
2023-05-16T06:32:43.995Z,15.72
2023-05-16T06:33:18.137Z,15.78
2023-05-16T06:34:04.967Z,15.68
2023-05-16T06:34:39.064Z,15.68
2023-05-16T06:35:26.092Z,15.58
2023-05-16T06:36:00.133Z,15.61
2023-05-16T06:36:46.975Z,15.65
2023-05-16T06:37:21.244Z,15.52
2023-05-16T06:38:08.024Z,15.72
2023-05-16T06:38:42.026Z,15.76
2023-05-16T06:39:28.967Z,15.76
2023-05-16T06:40:03.345Z,15.85
2023-05-16T06:40:49.912Z,15.86
2023-05-16T06:41:29.252Z,15.77
2023-05-16T06:42:09.035Z,15.90
2023-05-16T06:42:49.117Z,15.98
2023-05-16T06:43:29.949Z,16.04
2023-05-16T06:44:10.043Z,15.91
2023-05-16T06:44:49.965Z,15.91
2023-05-16T06:45:31.172Z,16.03
2023-05-16T06:46:12.054Z,16.08
2023-05-16T06:46:52.136Z,15.97
2023-05-16T06:47:33.083Z,15.90
2023-05-16T06:48:15.721Z,15.97
2023-05-16T06:48:55.963Z,16.00
2023-05-16T06:49:36.237Z,15.99
2023-05-16T06:50:19.935Z,16.05
2023-05-16T06:51:00.061Z,15.98
2023-05-16T06:51:41.975Z,16.09
2023-05-16T06:52:22.101Z,16.02
2023-05-16T06:53:02.021Z,16.12
2023-05-16T06:53:42.181Z,16.09
2023-05-16T06:54:22.953Z,16.13
2023-05-16T06:55:03.060Z,16.14
2023-05-16T06:55:43.964Z,16.15
2023-05-16T06:56:25.271Z,16.12
2023-05-16T06:57:04.924Z,16.26
2023-05-16T06:57:45.035Z,16.08
2023-05-16T06:58:24.963Z,16.27
2023-05-16T06:59:05.057Z,16.31
2023-05-16T06:59:45.990Z,16.38
2023-05-16T07:00:30.203Z,16.44
2023-05-16T07:01:09.976Z,16.55
2023-05-16T07:01:50.139Z,16.52
2023-05-16T07:02:30.048Z,16.50
2023-05-16T07:03:10.102Z,16.51
2023-05-16T07:03:51.095Z,16.62
2023-05-16T07:04:31.197Z,16.46
2023-05-16T07:05:11.991Z,16.41
2023-05-16T07:05:53.043Z,16.50
2023-05-16T07:06:33.928Z,16.54
2023-05-16T07:07:14.196Z,16.45
2023-05-16T07:07:55.940Z,16.39
2023-05-16T07:08:37.058Z,16.59
2023-05-16T07:09:17.986Z,16.42
2023-05-16T07:09:58.042Z,16.40
2023-05-16T07:10:38.177Z,16.45
2023-05-16T07:11:18.122Z,16.43
2023-05-16T07:11:58.932Z,16.49
2023-05-16T07:12:39.206Z,16.44
2023-05-16T07:13:19.967Z,16.42
2023-05-16T07:14:00.016Z,16.14
2023-05-16T07:14:42.057Z,16.44
2023-05-16T07:15:22.126Z,16.54
2023-05-16T07:16:04.054Z,16.62
2023-05-16T07:16:44.423Z,16.78
2023-05-16T07:17:26.005Z,16.79
2023-05-16T07:18:06.124Z,16.82
2023-05-16T07:18:47.026Z,16.79
2023-05-16T07:19:27.175Z,16.71
2023-05-16T07:20:07.963Z,16.77
2023-05-16T07:20:48.487Z,16.78
2023-05-16T07:21:31.955Z,16.91
2023-05-16T07:22:13.441Z,16.80
2023-05-16T07:22:53.898Z,16.90
2023-05-16T07:23:34.032Z,16.95
2023-05-16T07:24:14.921Z,16.70
2023-05-16T07:24:57.192Z,16.73
2023-05-16T07:25:37.945Z,16.90
2023-05-16T07:26:20.457Z,16.91
2023-05-16T07:27:00.908Z,16.84
2023-05-16T07:27:45.171Z,16.87
2023-05-16T07:28:25.940Z,16.87
2023-05-16T07:29:05.977Z,16.86
2023-05-16T07:29:47.897Z,16.80
2023-05-16T07:30:28.050Z,16.71
2023-05-16T07:31:07.929Z,16.77
2023-05-16T07:31:48.179Z,16.93
2023-05-16T07:32:28.975Z,16.86
2023-05-16T07:33:09.135Z,16.99
2023-05-16T07:33:49.950Z,16.93
2023-05-16T07:34:30.002Z,16.89
2023-05-16T07:35:10.937Z,16.82
2023-05-16T07:36:15.531Z,16.70
2023-05-16T07:37:07.981Z,16.93
2023-05-16T07:37:48.164Z,17.10
2023-05-16T07:38:33.667Z,17.05
2023-05-16T07:39:17.572Z,17.02
2023-05-16T07:39:58.013Z,17.04
2023-05-16T07:40:41.096Z,16.97
2023-05-16T07:41:21.950Z,17.11
2023-05-16T07:42:02.038Z,17.06
2023-05-16T07:42:48.158Z,17.12
2023-05-16T07:43:30.351Z,16.83
2023-05-16T07:44:10.928Z,16.95
2023-05-16T07:44:55.046Z,16.88
2023-05-16T07:45:41.020Z,16.85
2023-05-16T07:46:21.090Z,16.94
2023-05-16T07:47:01.868Z,17.01
2023-05-16T07:47:45.017Z,17.11
2023-05-16T07:48:25.077Z,17.11
2023-05-16T07:49:04.985Z,16.94
2023-05-16T07:49:45.906Z,16.98
2023-05-16T07:50:25.988Z,17.01
2023-05-16T07:51:08.933Z,16.90
2023-05-16T07:51:49.011Z,16.88
2023-05-16T07:52:28.938Z,17.06
2023-05-16T07:53:09.617Z,17.10
2023-05-16T07:53:50.916Z,16.97
2023-05-16T07:54:31.498Z,17.05
2023-05-16T07:55:12.855Z,16.97
2023-05-16T07:55:53.293Z,17.11
2023-05-16T07:56:32.934Z,16.96
2023-05-16T07:57:13.128Z,17.11
2023-05-16T07:58:04.953Z,17.20
2023-05-16T07:58:46.159Z,17.11
2023-05-16T07:59:25.903Z,17.05
2023-05-16T08:00:10.136Z,17.18
2023-05-16T08:00:50.076Z,17.11
2023-05-16T08:01:33.160Z,16.93
2023-05-16T08:03:14.969Z,17.33
2023-05-16T08:03:56.504Z,17.18
2023-05-16T08:04:44.969Z,17.30
2023-05-16T08:05:22.074Z,17.19
2023-05-16T08:06:09.910Z,17.25
2023-05-16T08:06:46.997Z,17.41
2023-05-16T08:07:36.896Z,17.34
2023-05-16T08:08:11.004Z,17.24
2023-05-16T08:09:01.040Z,17.46
2023-05-16T08:09:35.024Z,17.44
2023-05-16T08:10:18.781Z,17.56
2023-05-16T08:11:01.953Z,17.49
2023-05-16T08:11:46.863Z,17.44
2023-05-16T08:12:41.970Z,17.46
2023-05-16T08:13:21.919Z,17.31
2023-05-16T08:14:05.177Z,17.24
2023-05-16T08:14:45.888Z,17.60
2023-05-16T08:15:35.296Z,17.51
2023-05-16T08:16:28.949Z,17.62
2023-05-16T08:17:25.740Z,17.62
2023-05-16T08:18:31.906Z,17.48
2023-05-16T08:19:26.010Z,17.44
2023-05-16T08:20:23.626Z,17.60
2023-05-16T08:21:04.876Z,17.45
2023-05-16T08:21:47.811Z,17.62
2023-05-16T08:22:27.848Z,17.60
2023-05-16T08:23:10.173Z,17.73
2023-05-16T08:23:50.939Z,17.56
2023-05-16T08:24:37.355Z,17.72
2023-05-16T08:25:18.876Z,17.76
2023-05-16T08:26:01.763Z,17.83
2023-05-16T08:26:43.902Z,17.86
2023-05-16T08:27:26.700Z,17.58
2023-05-16T08:28:08.859Z,17.67
2023-05-16T08:28:51.679Z,17.84
2023-05-16T08:29:32.852Z,17.75
2023-05-16T08:30:16.025Z,17.89
2023-05-16T08:30:55.908Z,17.85
2023-05-16T08:31:36.080Z,17.97
2023-05-16T08:32:18.902Z,17.99
2023-05-16T08:32:59.232Z,17.97
2023-05-16T08:33:41.857Z,18.08
2023-05-16T08:34:22.075Z,18.09
2023-05-16T08:35:02.852Z,18.04
2023-05-16T08:35:43.108Z,18.02
2023-05-16T08:36:27.122Z,18.07
2023-05-16T08:37:07.015Z,18.02
2023-05-16T08:37:49.967Z,18.06
2023-05-16T08:38:30.052Z,18.23
2023-05-16T08:39:11.869Z,18.40
2023-05-16T08:39:52.034Z,18.42
2023-05-16T08:40:33.903Z,18.20
2023-05-16T08:41:13.959Z,18.35
2023-05-16T08:41:54.883Z,18.24
2023-05-16T08:42:35.280Z,18.31
2023-05-16T08:43:17.968Z,18.18
2023-05-16T08:43:57.933Z,18.27
2023-05-16T08:44:41.882Z,18.35
2023-05-16T08:45:23.288Z,18.33
2023-05-16T08:46:05.866Z,18.43
2023-05-16T08:46:49.248Z,18.38
2023-05-16T08:47:34.893Z,18.33
2023-05-16T08:48:24.960Z,18.17
2023-05-16T08:49:18.850Z,18.24
2023-05-16T08:50:16.068Z,18.26
2023-05-16T08:51:09.860Z,18.29
2023-05-16T08:52:05.881Z,18.23
2023-05-16T08:53:04.834Z,18.18
2023-05-16T08:53:53.606Z,18.17
2023-05-16T08:54:34.133Z,18.25
2023-05-16T08:55:15.896Z,18.17
2023-05-16T08:55:56.964Z,18.43
2023-05-16T08:56:37.882Z,18.22
2023-05-16T08:57:21.052Z,18.35
2023-05-16T08:58:04.896Z,18.29
2023-05-16T08:58:45.008Z,18.33
2023-05-16T08:59:25.844Z,18.34
2023-05-16T09:00:11.769Z,18.35
2023-05-16T09:01:16.901Z,18.49
2023-05-16T09:02:11.819Z,18.36
2023-05-16T09:03:06.948Z,18.39
2023-05-16T09:04:02.160Z,18.63
2023-05-16T09:04:49.872Z,18.71
2023-05-16T09:05:24.288Z,18.59
2023-05-16T09:06:13.856Z,18.72
2023-05-16T09:06:48.313Z,18.72
2023-05-16T09:07:36.829Z,18.88
2023-05-16T09:08:10.941Z,18.86
2023-05-16T09:08:58.858Z,18.93
2023-05-16T09:09:32.971Z,18.81
2023-05-16T09:10:14.862Z,18.70
2023-05-16T09:10:57.954Z,18.75
2023-05-16T09:11:37.820Z,18.64
2023-05-16T09:12:17.920Z,18.79
2023-05-16T09:12:57.838Z,18.91
2023-05-16T09:13:37.935Z,18.86
2023-05-16T09:14:18.847Z,18.91
2023-05-16T09:14:58.920Z,18.99
2023-05-16T09:15:40.889Z,18.94
2023-05-16T09:16:27.926Z,18.95
2023-05-16T09:17:18.465Z,18.94
2023-05-16T09:18:01.101Z,19.04
2023-05-16T09:18:41.951Z,18.98
2023-05-16T09:19:21.987Z,18.92
2023-05-16T09:20:04.803Z,19.08
2023-05-16T09:21:00.214Z,19.00
2023-05-16T09:21:53.823Z,18.97
2023-05-16T09:22:47.839Z,19.02